Time;durP1;ratioP1;P1;durP2;ratioP2;P2;SDS_P1;SDS_P2;PMS_P1;PMS_P2;Temp;Humidity;BMP_temperature;BMP_pressure;BME280_temperature;BME280_humidity;BME280_pressure;Samples;Min_cycle;Max_cycle;Signal;HPM_P1;HPM_P2
2021/09/03 00:01:00;;;;;;;5.22;3.55;;;;;;;29.98;62.33;100718.38;5052855;27;67135;-41
2021/09/03 00:03:32;;;;;;;3.65;3.42;;;;;;;29.99;63.22;100727.31;5073029;27;70368;-41
2021/09/03 00:06:03;;;;;;;3.60;3.40;;;;;;;29.99;63.49;100732.72;5072266;27;65197;-41
2021/09/03 00:08:34;;;;;;;3.50;3.20;;;;;;;30.02;64.02;100732.28;5061511;27;70042;-42
2021/09/03 00:11:05;;;;;;;3.53;2.97;;;;;;;30.04;63.27;100735.59;5072099;27;67156;-41
2021/09/03 00:13:36;;;;;;;3.00;2.70;;;;;;;30.07;63.75;100740.56;5070747;27;68755;-42
2021/09/03 00:16:07;;;;;;;5.32;2.97;;;;;;;30.08;64.36;100753.03;5066054;27;66339;-41
2021/09/03 00:18:38;;;;;;;3.28;2.97;;;;;;;30.04;64.31;100746.41;5070760;27;70111;-41
2021/09/03 00:21:08;;;;;;;3.40;2.65;;;;;;;30.12;64.49;100765.09;5068859;27;65913;-40
2021/09/03 00:23:40;;;;;;;4.00;2.42;;;;;;;30.12;64.86;100775.91;5071161;27;69752;-42
2021/09/03 00:26:11;;;;;;;3.33;2.70;;;;;;;30.14;64.63;100787.31;5068481;27;66332;-41
2021/09/03 00:28:42;;;;;;;4.60;2.95;;;;;;;30.13;65.14;100782.97;5084792;27;69551;-41
2021/09/03 00:31:12;;;;;;;12.43;3.22;;;;;;;30.17;63.67;100795.03;5074468;27;66946;-40
2021/09/03 00:33:43;;;;;;;8.35;1.90;;;;;;;30.03;65.11;100777.19;5077388;27;70326;-41
2021/09/03 00:36:14;;;;;;;3.83;1.15;;;;;;;30.09;65.18;100798.00;5089022;27;65396;-41
2021/09/03 00:38:45;;;;;;;2.93;1.60;;;;;;;30.09;64.56;100798.00;5086424;27;69592;-41
2021/09/03 00:41:16;;;;;;;6.95;1.50;;;;;;;29.91;64.05;100773.53;5082852;27;65920;-41
2021/09/03 00:43:47;;;;;;;8.02;1.77;;;;;;;30.09;64.14;100805.25;5083219;27;71228;-41
2021/09/03 00:46:19;;;;;;;1.27;1.10;;;;;;;30.00;65.58;100810.09;5084104;27;66400;-42
2021/09/03 00:48:50;;;;;;;3.10;1.50;;;;;;;29.99;64.84;100825.50;5058826;27;70019;-42
2021/09/03 00:51:21;;;;;;;2.08;1.50;;;;;;;29.99;64.83;100820.09;5078522;27;65941;-41
2021/09/03 00:53:52;;;;;;;1.33;1.17;;;;;;;29.97;65.21;100832.16;5078749;27;70019;-41
2021/09/03 00:56:23;;;;;;;3.70;0.95;;;;;;;29.90;65.45;100836.78;5072561;27;65578;-42
2021/09/03 00:58:54;;;;;;;5.00;1.48;;;;;;;29.87;64.92;100843.47;5073074;27;70248;-41
2021/09/03 01:01:25;;;;;;;2.80;1.27;;;;;;;29.79;66.35;100839.13;5079378;27;65628;-41
2021/09/03 01:03:57;;;;;;;1.52;1.42;;;;;;;29.74;66.91;100844.31;5073002;27;70114;-41
2021/09/03 01:06:29;;;;;;;1.65;1.13;;;;;;;29.78;66.30;100837.47;5076231;27;65933;-41
2021/09/03 01:09:00;;;;;;;;;;;;;;;29.43;68.13;100844.19;5070921;27;70275;-41
2021/09/03 01:11:31;;;;;;;3.15;1.20;;;;;;;29.78;66.45;100840.16;5071348;27;66775;-41
2021/09/03 01:14:06;;;;;;;1.75;1.45;;;;;;;29.92;65.51;100842.78;5085038;27;69671;-41
2021/09/03 01:16:37;;;;;;;2.13;1.33;;;;;;;29.94;65.94;100833.41;5076114;27;64643;-40
2021/09/03 01:19:08;;;;;;;2.43;1.50;;;;;;;30.03;65.95;100836.72;5066919;27;68665;-40
2021/09/03 01:21:39;;;;;;;6.05;2.10;;;;;;;30.01;65.68;100838.81;5071186;27;67305;-40
2021/09/03 01:24:10;;;;;;;1.92;1.70;;;;;;;30.08;65.46;100836.06;5074568;27;70833;-41
2021/09/03 01:26:41;;;;;;;2.45;1.20;;;;;;;30.01;65.68;100826.13;5069798;27;65592;-41
2021/09/03 01:29:13;;;;;;;1.33;1.00;;;;;;;30.17;65.47;100843.72;5083758;27;70236;-42
2021/09/03 01:31:44;;;;;;;7.57;1.00;;;;;;;30.18;65.81;100839.97;5092663;27;65952;-40
2021/09/03 01:34:15;;;;;;;2.28;1.35;;;;;;;30.25;65.74;100829.94;5079874;27;70883;-41
2021/09/03 01:36:46;;;;;;;4.88;1.30;;;;;;;30.25;65.29;100827.25;5071256;27;65157;-41
2021/09/03 01:39:17;;;;;;;3.80;3.08;;;;;;;30.33;65.59;100836.16;5083778;27;69594;-41
2021/09/03 01:41:47;;;;;;;3.03;2.83;;;;;;;30.33;65.38;100825.34;5074346;27;65754;-41
2021/09/03 01:44:18;;;;;;;5.60;2.25;;;;;;;30.38;65.11;100831.75;5070839;27;71179;-42
2021/09/03 01:46:52;;;;;;;3.47;2.80;;;;;;;30.31;66.38;100803.06;5073451;27;43199;-42
2021/09/03 01:49:23;;;;;;;6.90;3.60;;;;;;;30.46;66.95;100825.25;5080173;27;70156;-42
2021/09/03 01:51:54;;;;;;;6.10;5.50;;;;;;;30.54;66.54;100822.28;5075257;27;66879;-42
2021/09/03 01:54:25;;;;;;;8.05;6.90;;;;;;;30.44;66.74;100805.69;5080533;27;69727;-43
2021/09/03 01:56:56;;;;;;;15.73;10.35;;;;;;;30.54;66.97;100816.88;5078143;27;66160;-41
2021/09/03 01:59:27;;;;;;;11.27;9.50;;;;;;;30.54;66.95;100827.72;5078385;27;70220;-43
2021/09/03 02:01:57;;;;;;;9.13;7.90;;;;;;;30.54;67.01;100825.00;5046662;27;67223;-41
2021/09/03 02:04:28;;;;;;;9.13;6.63;;;;;;;30.54;66.09;100827.72;5082251;27;70493;-42
2021/09/03 02:06:59;;;;;;;7.00;6.15;;;;;;;30.51;66.56;100828.16;5074695;27;65929;-42
2021/09/03 02:09:30;;;;;;;7.72;6.13;;;;;;;30.51;66.63;100822.72;5072815;27;71066;-41
2021/09/03 02:12:01;;;;;;;10.20;6.57;;;;;;;30.55;66.48;100828.53;5081957;27;65968;-43
2021/09/03 02:14:32;;;;;;;6.78;5.57;;;;;;;30.58;66.51;100828.09;5074211;27;71336;-42
2021/09/03 02:17:03;;;;;;;7.53;5.60;;;;;;;30.53;67.37;100819.78;5075580;27;65611;-43
2021/09/03 02:19:34;;;;;;;6.25;5.75;;;;;;;30.57;66.69;100818.31;5088710;27;68940;-41
2021/09/03 02:22:06;;;;;;;6.82;4.85;;;;;;;30.57;66.62;100821.84;5074762;27;65567;-42
2021/09/03 02:24:37;;;;;;;4.60;4.15;;;;;;;30.57;66.83;100816.44;5071035;27;70152;-41
2021/09/03 02:27:08;;;;;;;7.15;4.78;;;;;;;30.63;67.00;100817.44;5068707;27;65917;-42
2021/09/03 02:29:39;;;;;;;4.38;3.90;;;;;;;30.60;67.10;100810.56;5074339;27;69465;-41
2021/09/03 02:32:09;;;;;;;4.93;3.40;;;;;;;30.70;67.36;100816.34;5068864;27;66959;-41
2021/09/03 02:34:40;;;;;;;6.25;3.40;;;;;;;30.71;67.57;100820.69;5075150;27;69808;-41
2021/09/03 02:37:11;;;;;;;3.90;3.60;;;;;;;30.77;67.35;100815.44;5069892;27;66099;-44
2021/09/03 02:39:42;;;;;;;4.07;3.77;;;;;;;30.76;67.42;100811.06;5076609;27;69854;-42
2021/09/03 02:42:13;;;;;;;3.90;3.60;;;;;;;30.85;67.78;100813.31;5052264;28;66351;-44
2021/09/03 02:44:45;;;;;;;3.45;3.15;;;;;;;30.88;67.81;100817.47;5068906;27;70163;-42
2021/09/03 02:47:15;;;;;;;5.10;3.20;;;;;;;30.94;67.43;100803.03;5065386;27;64801;-43
2021/09/03 02:49:46;;;;;;;3.80;3.30;;;;;;;30.96;67.58;100814.47;5077790;27;69279;-42
2021/09/03 02:52:17;;;;;;;5.28;2.85;;;;;;;30.98;67.29;100812.38;5080689;27;65292;-41
2021/09/03 02:54:48;;;;;;;3.27;2.30;;;;;;;30.93;67.00;100809.50;5065984;27;70699;-41
2021/09/03 02:57:19;;;;;;;4.88;2.20;;;;;;;30.63;67.04;100752.47;5071958;27;67022;-43
2021/09/03 02:59:51;;;;;;;2.67;2.22;;;;;;;31.00;67.16;100807.56;5057197;27;69528;-41
2021/09/03 03:02:23;;;;;;;4.63;1.95;;;;;;;31.03;66.61;100793.56;5072593;27;66282;-41
2021/09/03 03:04:54;;;;;;;1.88;1.65;;;;;;;31.07;66.50;100794.78;5074530;27;70028;-42
2021/09/03 03:07:24;;;;;;;2.40;1.63;;;;;;;31.11;65.93;100801.41;5076905;27;65353;-41
2021/09/03 03:09:55;;;;;;;2.13;2.03;;;;;;;31.14;66.25;100805.53;5078478;27;69697;-40
2021/09/03 03:12:26;;;;;;;1.77;1.58;;;;;;;31.13;66.15;100810.13;5064728;27;65199;-41
2021/09/03 03:14:57;;;;;;;1.67;1.58;;;;;;;31.13;65.66;100809.31;5074878;27;69407;-41
2021/09/03 03:17:29;;;;;;;3.10;1.65;;;;;;;31.15;66.08;100807.22;5070582;27;66187;-41
2021/09/03 03:19:59;;;;;;;5.18;1.50;;;;;;;31.19;65.92;100796.75;5076839;27;69203;-41
2021/09/03 03:22:31;;;;;;;1.95;1.48;;;;;;;31.14;65.16;100790.09;5067123;27;66438;-40
2021/09/03 03:25:03;;;;;;;1.23;1.10;;;;;;;31.24;65.29;100783.34;5066805;27;69336;-42
2021/09/03 03:27:35;;;;;;;2.47;1.70;;;;;;;31.30;65.13;100793.28;5071725;27;66131;-41
2021/09/03 03:30:19;;;;;;;1.73;1.23;;;;;;;31.31;64.92;100789.50;5056069;27;68825;-41
2021/09/03 03:32:50;;;;;;;5.10;1.70;;;;;;;31.32;64.43;100793.91;5073557;27;65746;-42
2021/09/03 03:35:22;;;;;;;7.37;1.30;;;;;;;31.33;64.36;100793.66;5060747;27;69853;-41
2021/09/03 03:37:53;;;;;;;2.45;1.70;;;;;;;31.35;64.40;100779.91;5073964;27;64942;-40
2021/09/03 03:40:24;;;;;;;2.00;1.60;;;;;;;31.36;64.13;100787.00;5078440;27;69107;-41
2021/09/03 03:42:55;;;;;;;1.83;1.48;;;;;;;31.38;64.55;100780.28;5082426;27;65105;-40
2021/09/03 03:45:26;;;;;;;6.15;2.33;;;;;;;31.42;65.23;100769.81;5078420;27;70632;-41
2021/09/03 03:47:56;;;;;;;4.53;2.22;;;;;;;31.40;65.59;100766.53;5076245;27;65450;-41
2021/09/03 03:50:27;;;;;;;4.45;2.42;;;;;;;31.48;65.85;100768.94;5055694;27;69901;-41
2021/09/03 03:52:58;;;;;;;6.57;2.97;;;;;;;31.52;65.62;100769.31;5081252;27;66959;-40
2021/09/03 03:55:29;;;;;;;4.43;3.17;;;;;;;31.53;65.90;100760.94;5074337;27;70057;-42
2021/09/03 03:58:00;;;;;;;2.97;2.10;;;;;;;31.54;65.14;100756.34;5078941;27;66501;-40
2021/09/03 04:00:31;;;;;;;4.35;2.25;;;;;;;31.57;65.39;100759.44;5067286;27;69678;-40
2021/09/03 04:03:02;;;;;;;6.77;1.87;;;;;;;31.59;64.25;100760.03;5076627;27;67392;-41
2021/09/03 04:05:33;;;;;;;4.28;1.80;;;;;;;31.58;64.37;100752.94;5066697;27;71162;-41
2021/09/03 04:08:04;;;;;;;4.35;1.77;;;;;;;31.55;64.48;100753.41;5074680;27;66397;-40
2021/09/03 04:10:36;;;;;;;1.55;1.30;;;;;;;31.54;64.03;100750.94;5071228;27;70586;-40
2021/09/03 04:13:07;;;;;;;1.77;1.30;;;;;;;31.54;63.98;100746.34;5073399;27;66191;-41
2021/09/03 04:15:38;;;;;;;1.80;1.70;;;;;;;31.54;63.56;100746.34;5069262;27;69381;-41
2021/09/03 04:18:09;;;;;;;3.87;1.60;;;;;;;31.52;63.56;100734.88;5069886;27;66006;-41
2021/09/03 04:20:40;;;;;;;1.25;1.13;;;;;;;31.54;63.94;100735.47;5078228;27;69568;-41
2021/09/03 04:23:11;;;;;;;1.50;1.23;;;;;;;31.51;64.55;100725.09;5080997;27;66377;-42
2021/09/03 04:25:42;;;;;;;2.33;1.50;;;;;;;31.34;64.65;100691.50;5078848;27;70865;-41
2021/09/03 04:28:13;;;;;;;6.70;1.73;;;;;;;31.57;64.21;100720.66;5080636;27;66258;-39
2021/09/03 04:30:44;;;;;;;3.75;1.17;;;;;;;31.61;64.62;100719.94;5084482;27;70590;-40
2021/09/03 04:33:15;;;;;;;2.17;1.65;;;;;;;31.60;64.82;100707.44;5082311;27;67637;-40
2021/09/03 04:35:46;;;;;;;1.83;1.63;;;;;;;31.46;64.45;100678.88;5075442;27;70297;-40
2021/09/03 04:38:17;;;;;;;5.60;1.27;;;;;;;31.67;64.43;100698.38;5078534;27;66051;-42
2021/09/03 04:40:48;;;;;;;1.77;1.35;;;;;;;31.70;64.23;100703.34;5074411;27;69986;-41
2021/09/03 04:43:19;;;;;;;4.37;1.73;;;;;;;31.73;64.01;100694.75;5070731;27;66129;-41
2021/09/03 04:45:50;;;;;;;5.40;1.40;;;;;;;31.77;63.94;100687.81;5078136;27;70431;-41
2021/09/03 04:48:22;;;;;;;2.00;1.80;;;;;;;31.76;63.74;100686.16;5074197;27;66404;-42
2021/09/03 04:50:52;;;;;;;2.42;2.05;;;;;;;31.75;63.68;100681.78;5075836;27;70048;-41
2021/09/03 04:53:26;;;;;;;2.10;1.90;;;;;;;31.75;63.72;100676.38;5080513;27;66414;-41
2021/09/03 04:55:57;;;;;;;1.85;1.65;;;;;;;31.74;63.69;100670.13;5081953;27;69203;-41
2021/09/03 04:58:28;;;;;;;1.75;1.65;;;;;;;31.78;64.00;100667.78;5073290;27;66326;-41
2021/09/03 05:00:59;;;;;;;2.73;1.83;;;;;;;31.72;62.62;100666.00;5077052;27;69305;-43
2021/09/03 05:03:31;;;;;;;2.13;1.67;;;;;;;31.54;62.26;100648.72;5075796;27;65562;-42
2021/09/03 05:06:01;;;;;;;2.97;1.60;;;;;;;31.58;61.43;100666.19;5068527;27;70179;-41
2021/09/03 05:08:32;;;;;;;2.03;1.10;;;;;;;31.41;59.92;100648.09;5070212;27;66248;-43
2021/09/03 05:11:03;;;;;;;5.47;1.20;;;;;;;31.41;58.66;100651.63;5087040;27;70603;-41
2021/09/03 05:13:34;;;;;;;1.90;1.13;;;;;;;31.30;57.87;100646.94;5071108;27;65762;-41
2021/09/03 05:16:05;;;;;;;1.35;1.10;;;;;;;31.23;56.41;100635.34;5067978;27;70829;-40
2021/09/03 05:18:37;;;;;;;1.25;1.15;;;;;;;31.14;55.63;100624.00;5071806;27;66457;-41
2021/09/03 05:21:08;;;;;;;2.40;0.98;;;;;;;31.12;56.92;100615.28;5066474;27;70840;-39
2021/09/03 05:23:39;;;;;;;1.33;0.90;;;;;;;31.09;56.94;100603.03;5066873;27;66175;-40
2021/09/03 05:26:10;;;;;;;2.23;1.20;;;;;;;31.04;56.08;100600.19;5069891;27;70166;-41
2021/09/03 05:28:41;;;;;;;1.08;0.95;;;;;;;31.01;55.59;100603.34;5072037;27;66779;-42
2021/09/03 05:31:12;;;;;;;1.65;1.17;;;;;;;31.00;55.48;100598.97;5071343;27;70300;-40
2021/09/03 05:33:43;;;;;;;8.00;1.40;;;;;;;30.89;55.32;100581.59;5073350;27;64736;-41
2021/09/03 05:36:15;;;;;;;8.57;1.25;;;;;;;30.87;54.82;100572.03;5067297;27;70114;-40
2021/09/03 05:38:46;;;;;;;8.95;1.60;;;;;;;30.93;54.76;100587.41;5073446;27;65812;-39
2021/09/03 05:41:17;;;;;;;3.37;1.03;;;;;;;30.85;54.43;100574.16;5062572;27;69138;-40
2021/09/03 05:43:48;;;;;;;12.13;1.52;;;;;;;30.83;53.69;100568.16;5072201;27;65766;-41
2021/09/03 05:46:19;;;;;;;5.47;1.27;;;;;;;30.68;53.63;100549.56;5070348;27;69969;-40
2021/09/03 05:48:51;;;;;;;10.15;1.40;;;;;;;30.76;52.98;100565.50;5066167;27;65393;-41
2021/09/03 05:51:23;;;;;;;5.57;1.08;;;;;;;30.76;52.67;100564.66;5065749;27;69429;-42
2021/09/03 05:53:54;;;;;;;8.77;1.17;;;;;;;30.70;52.41;100561.81;5071476;27;66803;-42
2021/09/03 05:56:25;;;;;;;2.38;1.20;;;;;;;30.76;52.12;100551.13;5070037;27;69120;-40
2021/09/03 05:58:56;;;;;;;1.83;1.10;;;;;;;30.69;51.33;100541.19;5074169;27;65465;-40
2021/09/03 06:01:27;;;;;;;3.63;0.90;;;;;;;30.64;51.28;100537.50;5072474;27;71381;-40
2021/09/03 06:03:59;;;;;;;11.13;1.15;;;;;;;30.65;50.84;100534.59;5070219;27;65631;-41
2021/09/03 06:06:30;;;;;;;1.85;1.13;;;;;;;30.68;50.22;100531.44;5074926;27;69437;-42
2021/09/03 06:09:01;;;;;;;1.55;1.20;;;;;;;30.67;49.36;100527.09;5066664;27;65270;-42
2021/09/03 06:11:32;;;;;;;1.98;1.40;;;;;;;30.67;49.25;100520.81;5085688;27;70973;-41
2021/09/03 06:14:05;;;;;;;2.23;1.10;;;;;;;30.66;49.29;100511.88;5083677;27;66030;-42
2021/09/03 06:16:37;;;;;;;1.48;1.00;;;;;;;30.69;48.89;100500.59;5071928;27;69933;-40
2021/09/03 06:19:09;;;;;;;1.73;1.00;;;;;;;30.67;49.04;100497.31;5070630;27;65312;-41
2021/09/03 06:21:40;;;;;;;2.33;1.17;;;;;;;30.69;48.76;100499.75;5083737;27;70216;-40
2021/09/03 06:24:30;;;;;;;;;;;;;;;30.42;48.44;100500.13;5080307;27;64939;-39
2021/09/03 06:27:04;;;;;;;0.90;0.60;;;;;;;30.66;47.84;100501.03;5079176;27;69924;-42
2021/09/03 06:29:42;;;;;;;1.02;0.75;;;;;;;30.68;47.60;100477.28;5072701;27;65942;-42
2021/09/03 06:32:18;;;;;;;0.98;0.80;;;;;;;30.67;47.41;100475.66;5072040;27;70065;-41
2021/09/03 06:34:57;;;;;;;0.77;0.63;;;;;;;30.70;47.21;100469.78;5074378;27;66204;-41
2021/09/03 06:37:31;;;;;;;1.77;0.85;;;;;;;30.71;46.94;100466.00;5082404;27;69426;-41
2021/09/03 06:40:02;;;;;;;0.93;0.60;;;;;;;30.70;46.65;100448.09;5077640;27;65771;-40
2021/09/03 06:42:33;;;;;;;1.20;0.80;;;;;;;30.69;46.29;100451.84;5081153;27;69532;-40
2021/09/03 06:45:05;;;;;;;0.82;0.60;;;;;;;30.73;46.30;100453.06;5078771;27;66157;-41
2021/09/03 06:47:36;;;;;;;;;;;;;;;30.47;46.35;100437.97;5076109;27;69395;-39
2021/09/03 06:50:09;;;;;;;1.08;0.60;;;;;;;30.72;46.48;100429.72;5077507;27;66108;-40
2021/09/03 06:52:40;;;;;;;1.77;0.55;;;;;;;30.73;46.57;100415.16;5084128;27;70364;-41
2021/09/03 06:55:11;;;;;;;0.85;0.60;;;;;;;30.70;46.08;100415.63;5067542;27;66659;-40
2021/09/03 06:57:43;;;;;;;0.68;0.47;;;;;;;30.77;46.04;100411.97;5059769;27;70049;-40
2021/09/03 07:00:14;;;;;;;0.93;0.68;;;;;;;30.75;45.65;100408.66;5071164;27;65236;-39
2021/09/03 07:02:45;;;;;;;0.75;0.50;;;;;;;30.79;45.32;100401.75;5077893;27;69940;-39
2021/09/03 07:05:17;;;;;;;1.00;0.60;;;;;;;30.83;45.43;100408.38;5080214;27;66926;-41
2021/09/03 07:07:48;;;;;;;0.70;0.70;;;;;;;30.87;45.42;100407.69;5080724;27;70318;-39
2021/09/03 07:10:19;;;;;;;2.10;0.55;;;;;;;30.91;45.44;100392.63;5074446;27;67666;-41
2021/09/03 07:12:50;;;;;;;1.95;0.52;;;;;;;30.92;45.35;100390.72;5083121;27;70604;-41
2021/09/03 07:15:21;;;;;;;0.70;0.45;;;;;;;30.94;44.89;100394.03;5077071;27;65280;-41
2021/09/03 07:17:56;;;;;;;0.50;0.40;;;;;;;30.98;45.37;100395.25;5078677;27;70375;-41
2021/09/03 07:20:27;;;;;;;1.03;0.40;;;;;;;30.95;44.35;100379.44;5084409;27;66207;-40
2021/09/03 07:23:00;;;;;;;1.23;0.63;;;;;;;31.00;44.44;100371.44;5084086;27;71111;-40
2021/09/03 07:25:31;;;;;;;1.15;0.60;;;;;;;31.06;44.36;100375.09;5073592;27;65651;-40
2021/09/03 07:28:02;;;;;;;0.65;0.52;;;;;;;31.09;44.64;100353.81;5090828;27;70451;-41
2021/09/03 07:30:34;;;;;;;1.48;0.75;;;;;;;31.09;43.95;100375.47;5066883;27;66245;-40
2021/09/03 07:33:05;;;;;;;0.70;0.70;;;;;;;31.12;44.20;100369.59;5077270;27;69343;-41
2021/09/03 07:35:36;;;;;;;1.35;0.75;;;;;;;31.09;43.99;100370.06;5078515;27;67195;-42
2021/09/03 07:38:11;;;;;;;1.13;0.50;;;;;;;31.20;43.63;100364.84;5087407;27;70474;-41
2021/09/03 07:40:42;;;;;;;0.55;0.50;;;;;;;31.20;43.76;100364.84;5083409;27;66181;-41
2021/09/03 07:43:15;;;;;;;0.80;0.60;;;;;;;31.23;43.65;100361.69;5072131;27;68892;-39
2021/09/03 07:45:47;;;;;;;5.22;0.70;;;;;;;31.25;43.39;100352.25;5076279;27;65289;-41
2021/09/03 07:48:19;;;;;;;1.17;0.70;;;;;;;31.26;43.39;100356.63;5059042;27;70143;-39
2021/09/03 07:50:50;;;;;;;1.00;0.60;;;;;;;31.29;43.67;100349.91;5069301;27;66595;-41
2021/09/03 07:53:22;;;;;;;0.90;0.63;;;;;;;31.34;43.92;100339.16;5071651;27;69396;-41
2021/09/03 07:55:53;;;;;;;0.93;0.70;;;;;;;31.29;43.36;100325.53;5061962;27;65807;-41
2021/09/03 07:58:24;;;;;;;1.20;0.98;;;;;;;31.41;43.65;100323.66;5066611;27;70292;-40
2021/09/03 08:00:55;;;;;;;1.17;0.97;;;;;;;31.45;43.88;100330.22;5087371;27;65574;-40
2021/09/03 08:03:26;;;;;;;1.67;0.80;;;;;;;31.44;43.61;100325.88;5067804;27;69602;-41
2021/09/03 08:05:58;;;;;;;2.03;0.95;;;;;;;31.44;44.03;100325.06;5071698;27;65884;-40
2021/09/03 08:08:30;;;;;;;1.67;1.52;;;;;;;31.45;43.78;100334.84;5069571;27;69546;-41
2021/09/03 08:11:01;;;;;;;2.38;1.20;;;;;;;31.47;43.71;100336.25;5066427;27;65417;-39
2021/09/03 08:13:32;;;;;;;4.30;1.40;;;;;;;31.50;43.91;100335.78;5071729;27;69064;-41
2021/09/03 08:16:04;;;;;;;1.45;1.35;;;;;;;31.54;43.48;100339.69;5072348;27;66287;-41
2021/09/03 08:18:35;;;;;;;4.37;1.60;;;;;;;31.52;43.92;100328.22;5070977;27;70747;-41
2021/09/03 08:21:06;;;;;;;1.53;1.43;;;;;;;31.56;43.12;100340.25;5070132;27;66073;-41
2021/09/03 08:23:43;;;;;;;1.98;1.60;;;;;;;31.54;43.30;100342.38;5079842;27;68459;-42
2021/09/03 08:26:20;;;;;;;1.98;1.52;;;;;;;31.50;43.20;100335.78;5076937;27;66923;-41
2021/09/03 08:28:50;;;;;;;1.70;1.60;;;;;;;31.49;43.03;100336.84;5078195;27;70136;-41
2021/09/03 08:31:23;;;;;;;3.67;1.63;;;;;;;31.55;43.17;100344.03;5072892;27;66867;-41
2021/09/03 08:33:53;;;;;;;1.30;1.20;;;;;;;31.51;43.31;100345.56;5082047;27;69286;-41
2021/09/03 08:36:24;;;;;;;7.05;1.80;;;;;;;31.63;45.56;100350.16;5082412;27;66105;-41
2021/09/03 08:38:55;;;;;;;3.58;2.25;;;;;;;31.77;47.40;100355.06;5078941;27;69523;-40
2021/09/03 08:41:27;;;;;;;6.93;2.25;;;;;;;31.89;48.03;100349.63;5079370;27;66039;-41
2021/09/03 08:43:59;;;;;;;11.77;2.40;;;;;;;31.99;49.16;100358.00;5084710;27;70177;-41
2021/09/03 08:46:33;;;;;;;15.05;2.42;;;;;;;32.11;49.88;100349.00;5084741;27;66061;-40
2021/09/03 08:49:07;;;;;;;15.88;2.97;;;;;;;32.21;53.31;100354.63;5085910;27;70470;-41
2021/09/03 08:51:38;;;;;;;7.35;3.00;;;;;;;32.32;54.59;100350.19;5077795;27;66095;-41
2021/09/03 08:54:09;;;;;;;7.03;3.13;;;;;;;32.43;54.64;100346.59;5077102;27;70753;-42
2021/09/03 08:56:40;;;;;;;3.45;2.97;;;;;;;32.51;55.36;100345.41;5080700;27;65874;-41
2021/09/03 08:59:11;;;;;;;3.60;3.30;;;;;;;32.47;56.77;100316.03;5076213;27;69666;-41
2021/09/03 09:01:42;;;;;;;6.00;3.63;;;;;;;32.64;56.49;100337.78;5080619;27;66234;-41
2021/09/03 09:04:15;;;;;;;4.40;3.97;;;;;;;32.68;57.52;100338.97;5074896;27;70100;-41
2021/09/03 09:07:02;;;;;;;5.80;4.30;;;;;;;32.72;58.04;100331.97;5082506;27;65187;-40
2021/09/03 09:09:47;;;;;;;4.93;4.50;;;;;;;32.57;57.80;100290.13;5079241;27;69185;-41
2021/09/03 09:12:19;;;;;;;5.20;4.80;;;;;;;32.87;57.67;100339.53;5074925;27;66500;-41
2021/09/03 09:15:09;;;;;;;6.35;4.10;;;;;;;32.83;58.08;100343.81;5076109;27;69599;-40
2021/09/03 09:17:42;;;;;;;4.97;4.68;;;;;;;32.90;57.64;100330.91;5073599;27;66068;-41
2021/09/03 09:20:18;;;;;;;5.28;4.90;;;;;;;32.89;58.09;100334.69;5069017;27;69812;-42
2021/09/03 09:23:04;;;;;;;5.40;5.00;;;;;;;32.65;58.25;100312.31;5078831;27;66503;-42
2021/09/03 09:25:37;;;;;;;5.40;4.45;;;;;;;32.62;58.36;100303.81;5079082;27;69279;-41
2021/09/03 09:28:19;;;;;;;6.97;4.57;;;;;;;32.94;58.66;100358.41;5069235;27;64995;-41
2021/09/03 09:30:51;;;;;;;5.10;4.80;;;;;;;32.97;58.09;100365.22;5058750;27;70342;-36
2021/09/03 09:33:23;;;;;;;6.43;5.32;;;;;;;32.92;58.41;100350.47;5078470;27;66561;-38
2021/09/03 09:35:57;;;;;;;4.90;4.60;;;;;;;32.62;57.90;100288.31;5066547;27;70269;-38
2021/09/03 09:38:34;;;;;;;5.20;4.85;;;;;;;33.17;57.73;100365.56;5080127;27;66026;-39
2021/09/03 09:41:08;;;;;;;9.88;5.45;;;;;;;33.24;57.41;100358.09;5080629;27;70118;-37
2021/09/03 09:43:38;;;;;;;5.63;5.22;;;;;;;33.30;57.36;100362.53;5076232;27;66420;-38
2021/09/03 09:46:15;;;;;;;5.45;5.15;;;;;;;33.37;57.20;100357.72;5072217;27;69365;-37
2021/09/03 09:48:52;;;;;;;5.60;5.20;;;;;;;33.08;56.91;100320.88;5074598;27;66273;-37
2021/09/03 09:51:36;;;;;;;5.13;4.82;;;;;;;33.45;56.90;100385.56;5059723;28;70058;-38
2021/09/03 09:54:22;;;;;;;5.97;5.60;;;;;;;33.18;56.79;100358.25;5084512;27;65945;-40
2021/09/03 09:56:56;;;;;;;6.78;6.25;;;;;;;33.37;57.39;100390.34;5077159;27;70177;-39
2021/09/03 09:59:30;;;;;;;10.30;6.07;;;;;;;33.00;57.60;100340.31;5073083;27;66275;-39
2021/09/03 10:02:05;;;;;;;6.57;6.00;;;;;;;33.05;58.00;100353.97;5084905;27;69339;-39
2021/09/03 10:04:37;;;;;;;6.75;6.25;;;;;;;33.29;58.03;100398.94;5076680;27;65389;-39
2021/09/03 10:07:09;;;;;;;5.90;5.60;;;;;;;33.23;58.50;100389.03;5077785;27;69993;-39
2021/09/03 10:09:40;;;;;;;7.23;6.63;;;;;;;33.20;58.76;100384.09;5060419;28;67342;-39
2021/09/03 10:12:11;;;;;;;6.80;6.13;;;;;;;33.20;58.64;100373.22;5080666;27;71101;-40
2021/09/03 10:14:43;;;;;;;6.97;6.40;;;;;;;33.15;59.11;100375.84;5082453;27;65677;-39
2021/09/03 10:17:14;;;;;;;6.20;5.70;;;;;;;33.16;59.25;100382.97;5075403;27;68970;-38
2021/09/03 10:19:52;;;;;;;6.32;5.53;;;;;;;32.86;59.07;100337.88;5080876;27;66071;-38
2021/09/03 10:22:23;;;;;;;5.82;5.43;;;;;;;33.14;59.17;100379.66;5082709;27;69568;-39
2021/09/03 10:25:10;;;;;;;9.80;6.47;;;;;;;32.93;59.95;100368.44;5078595;27;65241;-38
2021/09/03 10:28:01;;;;;;;6.40;5.63;;;;;;;33.09;59.28;100382.28;5088397;27;70258;-39
2021/09/03 10:30:32;;;;;;;8.27;6.57;;;;;;;33.13;59.58;100399.78;5072424;27;66113;-39
2021/09/03 10:33:12;;;;;;;6.90;6.40;;;;;;;33.12;59.70;100419.84;5082985;27;70282;-39
2021/09/03 10:35:43;;;;;;;6.75;6.35;;;;;;;33.11;59.00;100415.50;5070355;27;67565;-38
2021/09/03 10:38:34;;;;;;;11.52;6.35;;;;;;;32.99;58.10;100420.97;5089281;27;69211;-39
2021/09/03 10:41:05;;;;;;;6.43;5.83;;;;;;;33.06;57.51;100420.84;5072622;27;66240;-39
2021/09/03 10:43:48;;;;;;;7.97;6.80;;;;;;;32.91;57.38;100418.66;5082870;27;69665;-38
2021/09/03 10:46:19;;;;;;;8.35;7.65;;;;;;;32.96;57.02;100428.78;5078852;27;66189;-38
2021/09/03 10:48:52;;;;;;;7.27;6.57;;;;;;;33.03;57.23;100470.25;5074332;27;69997;-38
2021/09/03 10:51:37;;;;;;;10.07;6.85;;;;;;;32.93;57.18;100485.28;5082188;27;66537;-38
2021/09/03 10:54:15;;;;;;;7.75;7.15;;;;;;;32.72;56.75;100475.09;5076436;27;70054;-38
2021/09/03 10:56:58;;;;;;;8.57;7.72;;;;;;;32.82;57.48;100512.47;5077744;27;66218;-39
2021/09/03 10:59:29;;;;;;;7.53;7.03;;;;;;;32.86;57.94;100527.22;5076603;27;69605;-38
2021/09/03 11:02:00;;;;;;;7.40;6.70;;;;;;;32.79;57.47;100538.25;5075434;27;65629;-39
2021/09/03 11:04:43;;;;;;;7.45;6.85;;;;;;;32.71;57.19;100544.06;5071223;27;70226;-39
2021/09/03 11:07:14;;;;;;;7.82;7.10;;;;;;;32.71;58.56;100554.91;5069708;27;66366;-39
2021/09/03 11:09:46;;;;;;;8.30;6.50;;;;;;;32.60;59.25;100545.75;5069259;27;70217;-37
2021/09/03 11:12:21;;;;;;;7.47;6.80;;;;;;;32.65;59.10;100570.28;5070130;27;66002;-38
2021/09/03 11:14:55;;;;;;;6.20;5.70;;;;;;;32.59;59.98;100564.97;5069640;27;70138;-38
2021/09/03 11:17:27;;;;;;;8.82;7.00;;;;;;;32.54;60.61;100586.59;5066796;27;66607;-39
2021/09/03 11:20:00;;;;;;;;;;;;;;;32.17;61.74;100584.09;5075405;27;68961;-38
2021/09/03 11:22:30;;;;;;;6.65;6.22;;;;;;;32.11;61.06;100533.50;5074208;27;65477;-39
2021/09/03 11:25:06;;;;;;;7.18;5.88;;;;;;;32.27;61.12;100559.94;5072455;27;69400;-39
2021/09/03 11:27:38;;;;;;;6.65;6.15;;;;;;;32.51;61.89;100614.22;5071278;27;66840;-39
2021/09/03 11:30:14;;;;;;;6.40;6.00;;;;;;;32.26;61.74;100558.25;5068887;27;69816;-38
2021/09/03 11:32:46;;;;;;;7.40;6.60;;;;;;;32.54;61.45;100589.28;5079674;27;66061;-39
2021/09/03 11:35:21;;;;;;;7.05;5.97;;;;;;;32.55;61.69;100599.94;5077388;27;69255;-40
2021/09/03 11:37:54;;;;;;;9.65;6.88;;;;;;;32.55;61.72;100609.97;5073145;27;66359;-39
2021/09/03 11:40:31;;;;;;;6.95;6.25;;;;;;;32.54;62.24;100602.88;5077268;27;69392;-38
2021/09/03 11:43:05;;;;;;;6.72;6.05;;;;;;;32.56;62.35;100612.44;5078394;27;66209;-40
2021/09/03 11:45:43;;;;;;;8.20;5.68;;;;;;;32.49;62.60;100607.13;5068811;27;70368;-39
2021/09/03 11:48:18;;;;;;;14.13;7.13;;;;;;;32.53;62.50;100617.53;5083230;27;66538;-38
2021/09/03 11:50:50;;;;;;;6.53;6.03;;;;;;;32.41;62.35;100604.75;5081535;27;70064;-40